createdAt,value
2018-09-20T00:02:31.265Z,60.17
2018-09-20T00:05:06.468Z,60.16
2018-09-20T00:07:41.627Z,59.93
2018-09-20T00:10:16.493Z,60.51
2018-09-20T00:12:51.635Z,60.49
2018-09-20T00:15:26.680Z,60.83
2018-09-20T00:18:01.704Z,60.63
2018-09-20T00:20:36.681Z,60.69
2018-09-20T00:23:11.920Z,60.82
2018-09-20T00:25:46.981Z,61.19
2018-09-20T00:28:22.097Z,61.31
2018-09-20T00:30:57.232Z,61.31
2018-09-20T00:33:32.386Z,61.87
2018-09-20T00:36:07.277Z,61.96
2018-09-20T00:38:42.387Z,62.01
2018-09-20T00:41:17.572Z,62.16
2018-09-20T00:43:52.540Z,63.08
2018-09-20T00:46:27.456Z,62.45
2018-09-20T00:49:02.512Z,62.83
2018-09-20T00:51:37.645Z,62.71
2018-09-20T00:54:12.705Z,62.79
2018-09-20T00:56:47.857Z,62.74
2018-09-20T00:59:23.176Z,62.95
2018-09-20T01:01:58.277Z,63.17
2018-09-20T01:04:33.580Z,63.01
2018-09-20T01:07:08.646Z,63.33
2018-09-20T01:09:50.488Z,63.47
2018-09-20T01:12:25.696Z,63.76
2018-09-20T01:15:00.716Z,63.92
2018-09-20T01:17:35.940Z,64.09
2018-09-20T01:20:11.123Z,64.04
2018-09-20T01:22:46.244Z,64.40
2018-09-20T01:25:21.256Z,64.20
2018-09-20T01:27:56.364Z,64.63
2018-09-20T01:30:31.444Z,64.98
2018-09-20T01:33:06.248Z,64.63
2018-09-20T01:35:41.430Z,64.55
2018-09-20T01:38:16.558Z,63.87
2018-09-20T01:40:51.689Z,64.24
2018-09-20T01:43:26.696Z,65.08
2018-09-20T01:46:01.812Z,64.95
2018-09-20T01:48:37.048Z,65.29
2018-09-20T01:51:12.228Z,64.85
2018-09-20T01:53:47.376Z,64.65
2018-09-20T01:56:22.529Z,64.45
2018-09-20T01:58:57.669Z,64.47
2018-09-20T02:01:32.709Z,64.69
2018-09-20T02:04:08.045Z,65.01
2018-09-20T02:06:43.200Z,64.95
2018-09-20T02:09:18.348Z,64.90
2018-09-20T02:11:53.544Z,64.93
2018-09-20T02:14:28.660Z,66.01
2018-09-20T02:17:03.813Z,65.89
2018-09-20T02:19:38.820Z,65.48
2018-09-20T02:22:13.949Z,66.13
2018-09-20T02:24:49.083Z,66.08
2018-09-20T02:27:24.210Z,66.02
2018-09-20T02:29:59.189Z,66.04
2018-09-20T02:32:34.236Z,65.52
2018-09-20T02:35:09.356Z,66.03
2018-09-20T02:37:44.521Z,65.75
2018-09-20T02:40:19.522Z,65.79
2018-09-20T02:42:54.661Z,65.94
2018-09-20T02:45:29.692Z,65.67
2018-09-20T02:48:04.815Z,65.22
2018-09-20T02:50:39.888Z,65.51
2018-09-20T02:53:15.118Z,64.78
2018-09-20T02:55:50.296Z,64.69
2018-09-20T02:58:25.436Z,65.59
2018-09-20T03:01:00.434Z,65.20
2018-09-20T03:03:35.560Z,65.48
2018-09-20T03:06:10.424Z,65.52
2018-09-20T03:08:45.657Z,65.97
2018-09-20T03:11:20.821Z,65.75
2018-09-20T03:13:56.005Z,65.44
2018-09-20T03:16:31.124Z,65.74
2018-09-20T03:19:06.608Z,65.26
2018-09-20T03:21:41.741Z,65.35
2018-09-20T03:24:16.880Z,65.95
2018-09-20T03:26:52.052Z,66.38
2018-09-20T03:29:27.032Z,66.11
2018-09-20T03:32:02.168Z,67.01
2018-09-20T03:34:37.268Z,66.47
2018-09-20T03:37:12.416Z,66.18
2018-09-20T03:39:47.372Z,66.88
2018-09-20T03:42:22.460Z,66.41
2018-09-20T03:44:57.548Z,66.40
2018-09-20T03:47:32.704Z,66.72
2018-09-20T03:50:08.300Z,66.51
2018-09-20T03:52:43.453Z,66.36
2018-09-20T03:55:18.537Z,67.17
2018-09-20T03:57:53.457Z,67.19
2018-09-20T04:00:28.553Z,66.75
2018-09-20T04:03:03.660Z,67.63
2018-09-20T04:05:38.609Z,67.56
2018-09-20T04:08:13.732Z,67.82
2018-09-20T04:10:48.905Z,67.93
2018-09-20T04:13:23.896Z,67.30
2018-09-20T04:15:59.080Z,67.66
2018-09-20T04:18:34.084Z,67.73
2018-09-20T04:21:09.287Z,66.83
2018-09-20T04:23:44.461Z,67.62
2018-09-20T04:26:19.499Z,66.86
2018-09-20T04:28:54.596Z,67.13
2018-09-20T04:31:30.282Z,67.40
2018-09-20T04:34:05.299Z,67.75
2018-09-20T04:36:40.454Z,68.13
2018-09-20T04:39:15.657Z,67.30
2018-09-20T04:41:50.748Z,68.09
2018-09-20T04:44:25.896Z,67.95
2018-09-20T04:47:01.008Z,67.76
2018-09-20T04:49:36.089Z,68.26
2018-09-20T04:52:11.245Z,67.40
2018-09-20T04:54:46.346Z,67.42
2018-09-20T04:57:21.476Z,67.61
2018-09-20T04:59:56.553Z,67.92
2018-09-20T05:02:31.573Z,67.43
2018-09-20T05:05:06.710Z,67.56
2018-09-20T05:07:41.684Z,67.58
2018-09-20T05:10:16.737Z,67.50
2018-09-20T05:12:51.908Z,68.35
2018-09-20T05:15:26.917Z,67.83
2018-09-20T05:18:02.002Z,68.04
2018-09-20T05:20:37.117Z,67.66
2018-09-20T05:23:12.514Z,67.95
2018-09-20T05:25:47.749Z,67.65
2018-09-20T05:28:22.893Z,68.13
2018-09-20T05:30:58.028Z,68.71
2018-09-20T05:33:33.244Z,68.74
2018-09-20T05:36:08.296Z,68.07
2018-09-20T05:38:43.400Z,68.58
2018-09-20T05:41:18.504Z,68.05
2018-09-20T05:43:53.705Z,68.18
2018-09-20T05:46:28.960Z,68.33
2018-09-20T05:49:03.989Z,68.80
2018-09-20T05:51:39.374Z,68.13
2018-09-20T05:54:14.503Z,69.35
2018-09-20T05:56:49.627Z,68.53
2018-09-20T05:59:24.841Z,69.19
2018-09-20T06:02:00.115Z,68.69
2018-09-20T06:04:35.340Z,69.13
2018-09-20T06:07:10.459Z,68.56
2018-09-20T06:09:45.471Z,68.15
2018-09-20T06:12:20.749Z,68.38
2018-09-20T06:14:55.965Z,69.05
2018-09-20T06:17:30.904Z,68.81
2018-09-20T06:20:06.140Z,67.66
2018-09-20T06:22:41.297Z,68.43
2018-09-20T06:25:16.399Z,67.59
2018-09-20T06:27:51.585Z,67.82
2018-09-20T06:30:26.586Z,67.61
2018-09-20T06:33:01.793Z,67.33
2018-09-20T06:35:36.978Z,67.67
2018-09-20T06:38:12.080Z,68.44
2018-09-20T06:40:47.144Z,67.83
2018-09-20T06:43:22.288Z,67.65
2018-09-20T06:45:57.336Z,67.42
2018-09-20T06:48:32.476Z,67.42
2018-09-20T06:51:07.644Z,66.83
2018-09-20T06:53:42.720Z,66.73
2018-09-20T06:56:18.060Z,66.51
2018-09-20T06:58:53.393Z,66.83
2018-09-20T07:01:28.580Z,67.47
2018-09-20T07:04:03.914Z,67.34
2018-09-20T07:06:38.865Z,66.78
2018-09-20T07:09:14.792Z,65.34
2018-09-20T07:11:50.024Z,66.21
2018-09-20T07:14:25.047Z,65.46
2018-09-20T07:17:00.273Z,66.10
2018-09-20T07:19:35.245Z,65.59
2018-09-20T07:22:10.472Z,65.63
2018-09-20T07:24:45.693Z,65.71
2018-09-20T07:27:20.784Z,64.87
2018-09-20T07:29:55.826Z,65.20
2018-09-20T07:32:30.945Z,64.41
2018-09-20T07:35:06.236Z,63.94
2018-09-20T07:37:41.427Z,63.94
2018-09-20T07:40:16.513Z,62.92
2018-09-20T07:42:51.668Z,63.37
2018-09-20T07:45:26.677Z,63.45
2018-09-20T07:48:01.720Z,63.20
2018-09-20T07:50:36.855Z,62.89
2018-09-20T07:53:12.020Z,62.50
2018-09-20T07:55:47.029Z,61.96
2018-09-20T07:58:22.180Z,61.76
2018-09-20T08:00:57.355Z,60.29
2018-09-20T08:03:32.844Z,59.66
2018-09-20T08:06:07.980Z,59.75
2018-09-20T08:08:43.049Z,59.43
2018-09-20T08:11:18.180Z,58.85
2018-09-20T08:13:53.327Z,58.74
2018-09-20T08:16:28.500Z,59.74
2018-09-20T08:19:03.664Z,59.19
2018-09-20T08:21:38.919Z,59.18
2018-09-20T08:24:14.093Z,59.50
2018-09-20T08:26:49.216Z,59.10
2018-09-20T08:29:24.405Z,58.30
2018-09-20T08:31:59.844Z,58.52
2018-09-20T08:34:34.921Z,58.82
2018-09-20T08:37:10.093Z,58.91
2018-09-20T08:39:45.216Z,57.59
2018-09-20T08:42:20.408Z,58.14
2018-09-20T08:44:55.433Z,56.53
2018-09-20T08:47:30.529Z,56.62
2018-09-20T08:50:06.137Z,57.58
2018-09-20T08:52:41.128Z,56.83
2018-09-20T08:55:16.217Z,56.25
2018-09-20T08:57:55.689Z,56.39
2018-09-20T09:00:30.619Z,55.67
2018-09-20T09:03:05.804Z,54.70
2018-09-20T09:05:40.833Z,55.74
2018-09-20T09:08:15.912Z,55.18
2018-09-20T09:10:50.906Z,53.94
2018-09-20T09:13:26.044Z,54.07
2018-09-20T09:16:01.164Z,51.85
2018-09-20T09:18:36.100Z,50.82
2018-09-20T09:21:11.168Z,51.69
2018-09-20T09:23:46.438Z,51.76
2018-09-20T09:26:21.470Z,52.07
2018-09-20T09:28:56.632Z,51.53
2018-09-20T09:31:31.733Z,49.30
2018-09-20T09:34:06.904Z,49.80
2018-09-20T09:36:41.900Z,50.18
2018-09-20T09:39:16.855Z,49.90
2018-09-20T09:41:51.972Z,49.48
2018-09-20T09:44:26.980Z,49.19
2018-09-20T09:47:01.893Z,49.24
2018-09-20T09:49:36.893Z,49.51
2018-09-20T09:52:11.961Z,49.85
2018-09-20T09:54:47.034Z,50.52
2018-09-20T09:57:22.073Z,51.26
2018-09-20T09:59:57.232Z,50.05
2018-09-20T10:02:32.340Z,50.47
2018-09-20T10:05:07.505Z,49.54
2018-09-20T10:07:42.629Z,49.64
2018-09-20T10:10:17.752Z,48.78
2018-09-20T10:12:52.813Z,49.23
2018-09-20T10:15:27.929Z,48.82
2018-09-20T10:18:03.098Z,47.30
2018-09-20T10:20:38.185Z,47.00
2018-09-20T10:23:13.225Z,46.52
2018-09-20T10:25:48.429Z,46.47
2018-09-20T10:28:23.611Z,45.67
2018-09-20T10:30:58.689Z,45.33
2018-09-20T10:33:33.644Z,46.11
2018-09-20T10:36:08.717Z,45.77
2018-09-20T10:38:43.820Z,46.10
2018-09-20T10:41:19.000Z,44.98
2018-09-20T10:43:54.061Z,45.30
2018-09-20T10:46:29.064Z,44.33
2018-09-20T10:49:04.207Z,44.40
2018-09-20T10:51:39.365Z,43.33
2018-09-20T10:54:14.486Z,44.07
2018-09-20T10:56:49.546Z,43.93
2018-09-20T10:59:24.510Z,43.09
2018-09-20T11:01:59.651Z,42.67
2018-09-20T11:04:34.772Z,42.42
2018-09-20T11:07:09.881Z,42.63
2018-09-20T11:09:44.894Z,42.76
2018-09-20T11:12:19.856Z,42.68
2018-09-20T11:14:55.044Z,42.68
2018-09-20T11:17:30.178Z,41.20
2018-09-20T11:20:05.724Z,42.43
2018-09-20T11:22:40.729Z,40.51
2018-09-20T11:25:15.928Z,40.93
2018-09-20T11:27:51.120Z,40.91
2018-09-20T11:30:26.344Z,40.31
2018-09-20T11:33:01.304Z,40.91
2018-09-20T11:35:36.396Z,41.08
2018-09-20T11:38:11.484Z,39.99
2018-09-20T11:40:46.656Z,41.31
2018-09-20T11:43:21.652Z,39.87
2018-09-20T11:45:56.810Z,39.80
2018-09-20T11:48:31.956Z,39.52
2018-09-20T11:51:48.443Z,39.51
2018-09-20T11:54:23.541Z,38.96
2018-09-20T11:56:58.661Z,39.91
2018-09-20T11:59:33.787Z,38.64
2018-09-20T12:02:08.913Z,39.98
2018-09-20T12:04:43.903Z,39.83
2018-09-20T12:07:19.308Z,40.53
2018-09-20T12:09:54.391Z,39.91
2018-09-20T12:12:29.605Z,39.30
2018-09-20T12:15:04.808Z,39.42
2018-09-20T12:17:39.972Z,40.33
2018-09-20T12:20:15.104Z,38.02
2018-09-20T12:22:50.292Z,39.46
2018-09-20T12:25:25.424Z,39.23
2018-09-20T12:28:00.521Z,38.87
2018-09-20T12:30:35.651Z,39.06
2018-09-20T12:33:10.780Z,38.15
2018-09-20T12:35:45.948Z,37.96
2018-09-20T12:38:20.895Z,38.88
2018-09-20T12:40:55.877Z,38.65
2018-09-20T12:43:30.793Z,38.44
2018-09-20T12:46:05.760Z,39.28
2018-09-20T12:48:40.704Z,38.13
2018-09-20T12:51:15.607Z,37.75
2018-09-20T12:53:50.596Z,37.29
2018-09-20T12:56:25.580Z,37.50
2018-09-20T12:59:00.732Z,37.76
2018-09-20T13:01:35.740Z,37.29
2018-09-20T13:04:10.920Z,37.63
2018-09-20T13:06:46.026Z,37.57
2018-09-20T13:09:21.177Z,37.38
2018-09-20T13:11:56.173Z,37.06
2018-09-20T13:14:31.236Z,37.94
2018-09-20T13:17:07.084Z,38.72
2018-09-20T13:19:42.230Z,38.80
2018-09-20T13:22:17.259Z,39.22
2018-09-20T13:24:52.432Z,38.28
2018-09-20T13:27:27.581Z,38.72
2018-09-20T13:30:02.629Z,38.66
2018-09-20T13:32:37.629Z,39.05
2018-09-20T13:35:12.690Z,39.26
2018-09-20T13:37:47.794Z,39.60
2018-09-20T13:40:23.013Z,39.25
2018-09-20T13:42:58.101Z,40.26
2018-09-20T13:45:33.313Z,39.21
2018-09-20T13:48:08.378Z,40.36
2018-09-20T13:50:43.470Z,39.42
2018-09-20T13:53:18.565Z,40.17
2018-09-20T13:55:53.697Z,40.05
2018-09-20T13:58:28.797Z,40.81
2018-09-20T14:01:04.033Z,39.98
2018-09-20T14:03:39.052Z,39.85
2018-09-20T14:06:14.591Z,39.62
2018-09-20T14:08:49.529Z,40.65
2018-09-20T14:11:24.503Z,39.54
2018-09-20T14:13:59.576Z,39.78
2018-09-20T14:16:34.681Z,39.94
2018-09-20T14:19:09.780Z,39.64
2018-09-20T14:21:44.906Z,39.98
2018-09-20T14:24:20.018Z,39.50
2018-09-20T14:26:55.073Z,40.17
2018-09-20T14:29:30.178Z,39.99
2018-09-20T14:32:05.291Z,40.96
2018-09-20T14:34:40.412Z,39.13
2018-09-20T14:37:15.381Z,39.25
2018-09-20T14:39:50.465Z,38.70
2018-09-20T14:42:26.129Z,39.27
2018-09-20T14:45:01.218Z,38.44
2018-09-20T14:47:36.087Z,38.43
2018-09-20T14:50:11.285Z,39.63
2018-09-20T14:52:46.250Z,39.37
2018-09-20T14:55:21.393Z,38.63
2018-09-20T14:57:56.483Z,39.00
2018-09-20T15:00:31.552Z,39.50
2018-09-20T15:03:06.626Z,38.26
2018-09-20T15:05:41.562Z,39.00
2018-09-20T15:08:17.007Z,38.39
2018-09-20T15:10:52.060Z,38.82
2018-09-20T15:13:26.958Z,38.58
2018-09-20T15:16:02.041Z,38.75
2018-09-20T15:18:37.284Z,37.91
2018-09-20T15:21:12.300Z,37.75
2018-09-20T15:23:47.445Z,37.93
2018-09-20T15:26:22.804Z,37.77
2018-09-20T15:28:57.952Z,38.80
2018-09-20T15:31:33.064Z,38.58
2018-09-20T15:34:08.532Z,38.51
2018-09-20T15:36:43.638Z,38.91
2018-09-20T15:39:18.617Z,38.97
2018-09-20T15:41:53.760Z,38.78
2018-09-20T15:44:28.955Z,38.45
2018-09-20T15:47:04.089Z,38.49
2018-09-20T15:49:38.946Z,38.00
2018-09-20T15:52:14.105Z,38.06
2018-09-20T15:54:49.214Z,37.19
2018-09-20T15:57:24.204Z,36.55
2018-09-20T15:59:59.344Z,38.48
2018-09-20T16:02:34.457Z,38.95
2018-09-20T16:05:09.637Z,38.27
2018-09-20T16:07:44.632Z,38.22
2018-09-20T16:10:19.786Z,37.70
2018-09-20T16:12:54.901Z,37.82
2018-09-20T16:15:30.027Z,37.53
2018-09-20T16:18:05.031Z,37.84
2018-09-20T16:20:40.186Z,38.96
2018-09-20T16:23:15.313Z,37.81
2018-09-20T16:25:50.481Z,38.56
2018-09-20T16:28:37.684Z,38.10
2018-09-20T16:31:26.300Z,38.20
2018-09-20T16:34:26.204Z,38.89
2018-09-20T16:37:11.903Z,38.49
2018-09-20T16:39:48.732Z,39.45
2018-09-20T16:42:26.400Z,39.47
2018-09-20T16:45:01.339Z,39.74
2018-09-20T16:47:36.436Z,39.66
2018-09-20T16:50:11.444Z,40.88
2018-09-20T16:52:46.590Z,41.49
2018-09-20T16:55:21.638Z,41.75
2018-09-20T16:57:56.898Z,42.17
2018-09-20T17:00:31.908Z,42.65
2018-09-20T17:03:07.081Z,42.84
2018-09-20T17:05:42.257Z,42.91
2018-09-20T17:08:17.240Z,43.42
2018-09-20T17:10:52.316Z,43.17
2018-09-20T17:13:27.440Z,43.94
2018-09-20T17:16:02.509Z,44.24
2018-09-20T17:18:37.569Z,43.84
2018-09-20T17:21:12.681Z,44.34
2018-09-20T17:23:47.661Z,44.69
2018-09-20T17:26:22.829Z,44.74
2018-09-20T17:28:57.882Z,44.62
2018-09-20T17:31:32.869Z,44.93
2018-09-20T17:34:07.985Z,44.63
2018-09-20T17:36:43.518Z,44.62
2018-09-20T17:39:19.627Z,45.59
2018-09-20T17:41:56.665Z,46.15
2018-09-20T17:44:31.660Z,46.31
2018-09-20T17:47:06.721Z,45.67
2018-09-20T17:49:41.710Z,44.98
2018-09-20T17:52:17.112Z,46.60
2018-09-20T17:54:52.750Z,48.81
2018-09-20T17:57:28.504Z,49.32
2018-09-20T18:00:03.505Z,50.49
2018-09-20T18:02:38.589Z,50.46
2018-09-20T18:05:13.550Z,51.16
2018-09-20T18:07:48.764Z,51.80
2018-09-20T18:10:23.909Z,51.89
2018-09-20T18:12:58.869Z,52.05
2018-09-20T18:15:33.981Z,52.58
2018-09-20T18:18:09.183Z,53.81
2018-09-20T18:20:44.240Z,52.77
2018-09-20T18:23:19.237Z,52.72
2018-09-20T18:25:54.307Z,53.65
2018-09-20T18:28:29.464Z,53.96
2018-09-20T18:31:04.590Z,54.54
2018-09-20T18:33:39.720Z,54.34
2018-09-20T18:36:14.776Z,54.26
2018-09-20T18:38:50.009Z,55.34
2018-09-20T18:41:25.142Z,53.91
2018-09-20T18:44:00.277Z,53.80
2018-09-20T18:46:35.281Z,54.89
2018-09-20T18:49:10.202Z,53.51
2018-09-20T18:51:45.250Z,51.72
2018-09-20T18:54:20.260Z,51.72
2018-09-20T18:56:55.418Z,51.68
2018-09-20T18:59:30.284Z,51.80
2018-09-20T19:02:05.373Z,51.15
2018-09-20T19:04:40.509Z,50.81
2018-09-20T19:07:15.453Z,49.82
2018-09-20T19:09:50.610Z,50.81
2018-09-20T19:12:25.724Z,51.06
2018-09-20T19:15:00.764Z,50.69
2018-09-20T19:17:35.741Z,49.90
2018-09-20T19:20:10.817Z,50.74
2018-09-20T19:22:45.968Z,49.91
2018-09-20T19:25:21.429Z,49.41
2018-09-20T19:27:56.393Z,49.76
2018-09-20T19:30:31.575Z,50.32
2018-09-20T19:33:06.575Z,49.63
2018-09-20T19:35:41.680Z,50.29
2018-09-20T19:38:16.749Z,49.74
2018-09-20T19:40:51.826Z,50.55
2018-09-20T19:43:26.984Z,49.49
2018-09-20T19:46:01.997Z,49.76
2018-09-20T19:48:37.212Z,50.02
2018-09-20T19:51:12.328Z,49.34
2018-09-20T19:53:47.456Z,50.59
2018-09-20T19:56:22.694Z,50.21
2018-09-20T19:58:58.169Z,51.07
2018-09-20T20:01:33.352Z,50.22
2018-09-20T20:04:08.465Z,50.43
2018-09-20T20:06:43.576Z,51.37
2018-09-20T20:09:18.633Z,51.57
2018-09-20T20:11:53.642Z,51.56
2018-09-20T20:14:28.569Z,51.72
2018-09-20T20:17:03.703Z,51.78
2018-09-20T20:19:38.803Z,51.32
2018-09-20T20:22:13.857Z,50.87
2018-09-20T20:24:48.778Z,50.66
2018-09-20T20:27:23.841Z,51.52
2018-09-20T20:29:58.981Z,50.27
2018-09-20T20:32:34.108Z,50.44
2018-09-20T20:35:09.290Z,50.30
2018-09-20T20:37:44.416Z,49.96
2018-09-20T20:40:19.592Z,49.38
2018-09-20T20:42:54.707Z,49.43
2018-09-20T20:45:29.854Z,50.08
2018-09-20T20:48:11.280Z,49.88
2018-09-20T20:50:46.480Z,49.38
2018-09-20T20:53:21.529Z,50.07
2018-09-20T20:55:56.683Z,50.46
2018-09-20T20:58:31.799Z,50.83
2018-09-20T21:01:06.877Z,50.82
2018-09-20T21:03:42.141Z,50.71
2018-09-20T21:06:17.749Z,51.35
2018-09-20T21:08:52.867Z,52.28
2018-09-20T21:11:27.969Z,52.41
2018-09-20T21:14:02.868Z,52.83
2018-09-20T21:16:37.976Z,53.24
2018-09-20T21:19:13.093Z,52.95
2018-09-20T21:21:48.097Z,53.65
2018-09-20T21:24:22.966Z,52.63
2018-09-20T21:26:58.025Z,53.21
2018-09-20T21:29:33.132Z,52.82
2018-09-20T21:32:08.213Z,52.14
2018-09-20T21:34:43.325Z,52.16
2018-09-20T21:37:18.484Z,51.73
2018-09-20T21:39:53.712Z,51.40
2018-09-20T21:42:28.665Z,52.39
2018-09-20T21:45:03.845Z,51.57
2018-09-20T21:47:38.980Z,52.56
2018-09-20T21:50:14.033Z,51.24
2018-09-20T21:52:49.253Z,51.38
2018-09-20T21:55:24.393Z,51.74
2018-09-20T21:57:59.305Z,51.01
2018-09-20T22:00:34.309Z,50.65
2018-09-20T22:03:09.529Z,51.24
2018-09-20T22:05:44.531Z,50.76
2018-09-20T22:08:19.668Z,51.63
2018-09-20T22:10:54.785Z,50.94
2018-09-20T22:13:29.864Z,50.71
2018-09-20T22:16:05.090Z,51.67
2018-09-20T22:18:40.092Z,50.77
2018-09-20T22:21:15.054Z,51.36
2018-09-20T22:23:50.197Z,51.44
2018-09-20T22:26:25.492Z,52.19
2018-09-20T22:29:00.621Z,52.00
2018-09-20T22:31:35.708Z,52.96
2018-09-20T22:34:10.810Z,53.03
2018-09-20T22:36:45.717Z,52.79
2018-09-20T22:39:20.908Z,53.85
2018-09-20T22:41:56.064Z,52.74
2018-09-20T22:44:31.220Z,52.59
2018-09-20T22:47:06.651Z,52.82
2018-09-20T22:49:41.790Z,53.06
2018-09-20T22:52:16.881Z,52.81
2018-09-20T22:54:52.051Z,51.95
2018-09-20T22:57:27.140Z,52.48
2018-09-20T23:00:02.185Z,52.34
2018-09-20T23:02:37.288Z,52.22
2018-09-20T23:05:12.552Z,52.29
2018-09-20T23:07:47.693Z,52.95
2018-09-20T23:10:22.889Z,52.53
2018-09-20T23:12:58.008Z,52.50
2018-09-20T23:15:33.133Z,52.54
2018-09-20T23:18:08.248Z,52.41
2018-09-20T23:20:43.776Z,52.51
2018-09-20T23:23:18.908Z,51.77
2018-09-20T23:25:53.956Z,52.08
2018-09-20T23:28:29.083Z,52.19
2018-09-20T23:31:04.256Z,52.05
2018-09-20T23:33:39.232Z,52.50
2018-09-20T23:36:14.324Z,52.16
2018-09-20T23:38:49.491Z,52.29
2018-09-20T23:41:24.649Z,52.17
2018-09-20T23:43:59.795Z,52.42
2018-09-20T23:46:34.908Z,52.88
2018-09-20T23:49:10.099Z,52.98
2018-09-20T23:51:45.234Z,52.19
2018-09-20T23:54:20.285Z,52.25
2018-09-20T23:56:55.421Z,52.99
2018-09-20T23:59:30.362Z,52.64
